Welcome to Des Moines Iowa Weather. I am an independent private personal weather station on the Northwest Side of Des Moines, Iowa. Just East of Windsor Heights and just West of Glendale . This site is also mobile friendly.

There are no active watches, warnings or advisories


Visit our other weather sites:

Historical Data

Weather Station Setup



Weather Underground History page Text

Daily Summary for March 6, 2018 Units:  English    Metric   Both
« Previous Day
Next Day »
Daily Weekly Monthly Yearly Custom
  High: Low: Average:
Temperature: 33.4 °F 26.7 °F 30.3 °F
Dew Point: 30.0 °F 23.8 °F 26.8 °F
Humidity: 91 % 83 % 87 %
Wind Speed: 16.0 mph 0.0 mph 3.8 mph
Wind Gust: 23.0 mph - -
Wind:- - WSW
Pressure: 30.15 in 29.54 in -
Precipitation: 0.00 in    
Historical Graphs
 
 
Tabular Data for March 6, 2018
Time Temperature Dew Point Pressure Wind Wind Speed Wind Gust Humidity Rainfall Rate (Hourly)
00:00 31.4 °F 27.0 °F 29.71 in SW 1.0 mph 4.0 mph 85 % 0.00 in
00:05 31.4 °F 27.1 °F 29.68 in Calm   4.0 mph 84 % 0.00 in
00:10 31.4 °F 27.1 °F 29.68 in Calm   4.0 mph 84 % 0.00 in
00:15 31.5 °F 28.0 °F 29.70 in Calm   2.0 mph 85 % 0.00 in
00:20 31.4 °F 27.4 °F 29.68 in Calm   3.0 mph 85 % 0.00 in
00:25 31.5 °F 27.5 °F 29.68 in Calm   4.0 mph 85 % 0.00 in
00:30 31.7 °F 27.0 °F 29.70 in SSW 1.0 mph 4.0 mph 84 % 0.00 in
00:35 31.5 °F 27.5 °F 29.68 in Calm   4.0 mph 85 % 0.00 in
00:40 31.7 °F 27.4 °F 29.67 in West 1.0 mph 7.0 mph 84 % 0.00 in
00:45 31.7 °F 27.0 °F 29.70 in Calm   2.0 mph 84 % 0.00 in
00:50 31.7 °F 27.4 °F 29.67 in West 1.0 mph 7.0 mph 84 % 0.00 in
00:55 31.7 °F 27.4 °F 29.67 in Calm   3.0 mph 84 % 0.00 in
01:00 31.7 °F 27.0 °F 29.69 in Calm   2.0 mph 84 % 0.00 in
01:05 31.7 °F 27.4 °F 29.67 in Calm   3.0 mph 84 % 0.00 in
01:10 31.7 °F 27.4 °F 29.67 in Calm   3.0 mph 84 % 0.00 in
01:15 31.8 °F 28.0 °F 29.69 in West 2.0 mph 8.0 mph 86 % 0.00 in
01:20 31.7 °F 27.7 °F 29.66 in Calm   2.0 mph 85 % 0.00 in
01:25 31.7 °F 27.7 °F 29.66 in Calm   2.0 mph 85 % 0.00 in
01:30 31.5 °F 28.0 °F 29.68 in WNW 2.0 mph 7.0 mph 86 % 0.00 in
01:35 31.8 °F 28.1 °F 29.66 in SW 1.0 mph 9.0 mph 86 % 0.00 in
01:40 31.8 °F 28.1 °F 29.66 in SW 1.0 mph 9.0 mph 86 % 0.00 in
01:45 30.4 °F 27.0 °F 29.69 in WSW 2.0 mph 6.0 mph 86 % 0.00 in
01:50 31.2 °F 27.5 °F 29.66 in WNW 2.0 mph 9.0 mph 86 % 0.00 in
01:55 30.2 °F 26.5 °F 29.66 in NW 2.0 mph 10.0 mph 86 % 0.00 in
02:00 29.7 °F 26.0 °F 29.67 in Calm   4.0 mph 87 % 0.00 in
02:05 30.2 °F 26.5 °F 29.66 in NW 2.0 mph 10.0 mph 86 % 0.00 in
02:10 29.7 °F 26.3 °F 29.64 in West 1.0 mph 7.0 mph 87 % 0.00 in
02:15 29.4 °F 26.0 °F 29.67 in WSW 1.0 mph 2.0 mph 88 % 0.00 in
02:20 29.7 °F 26.3 °F 29.64 in West 1.0 mph 7.0 mph 87 % 0.00 in
02:25 29.4 °F 26.3 °F 29.64 in WSW 1.0 mph 4.0 mph 88 % 0.00 in
02:30 29.2 °F 26.0 °F 29.66 in West 2.0 mph 4.0 mph 88 % 0.00 in
02:35 29.4 °F 26.3 °F 29.64 in WSW 1.0 mph 4.0 mph 88 % 0.00 in
02:40 29.4 °F 26.3 °F 29.64 in WSW 1.0 mph 4.0 mph 88 % 0.00 in
02:45 29.2 °F 26.1 °F 29.63 in West 1.0 mph 7.0 mph 88 % 0.00 in
02:46 29.1 °F 25.0 °F 29.65 in WNW 8.0 mph 8.0 mph 86 % 0.00 in
02:50 29.2 °F 26.1 °F 29.63 in West 1.0 mph 7.0 mph 88 % 0.00 in
02:55 29.2 °F 26.1 °F 29.63 in West 1.0 mph 7.0 mph 88 % 0.00 in
03:00 29.1 °F 25.0 °F 29.64 in SSE 1.0 mph 3.0 mph 85 % 0.00 in
03:05 29.1 °F 25.5 °F 29.62 in West 2.0 mph 10.0 mph 86 % 0.00 in
03:10 29.1 °F 25.5 °F 29.62 in West 2.0 mph 10.0 mph 86 % 0.00 in
03:15 29.1 °F 25.0 °F 29.63 in South 3.0 mph 5.0 mph 86 % 0.00 in
03:20 29.1 °F 25.2 °F 29.61 in Calm   4.0 mph 85 % 0.00 in
03:25 29.1 °F 25.2 °F 29.61 in Calm   4.0 mph 85 % 0.00 in
03:30 29.1 °F 25.5 °F 29.60 in Calm   4.0 mph 86 % 0.00 in
03:33 28.9 °F 26.0 °F 29.62 in SW 2.0 mph 6.0 mph 87 % 0.00 in
03:35 29.1 °F 25.5 °F 29.60 in Calm   4.0 mph 86 % 0.00 in
03:40 28.8 °F 25.4 °F 29.60 in West 1.0 mph 11.0 mph 87 % 0.00 in
03:45 28.4 °F 25.0 °F 29.62 in SW 1.0 mph 8.0 mph 88 % 0.00 in
03:50 28.8 °F 25.4 °F 29.60 in West 1.0 mph 11.0 mph 87 % 0.00 in
03:55 28.3 °F 25.2 °F 29.59 in West 1.0 mph 10.0 mph 88 % 0.00 in
04:00 28.3 °F 25.2 °F 29.59 in West 1.0 mph 10.0 mph 88 % 0.00 in
04:01 27.7 °F 24.0 °F 29.62 in Calm   5.0 mph 87 % 0.00 in
04:05 28.3 °F 25.2 °F 29.59 in West 1.0 mph 10.0 mph 88 % 0.00 in
04:10 27.7 °F 24.4 °F 29.59 in West 2.0 mph 12.0 mph 87 % 0.00 in
04:15 27.7 °F 24.4 °F 29.59 in West 2.0 mph 12.0 mph 87 % 0.00 in
04:16 27.5 °F 24.0 °F 29.61 in Calm   8.0 mph 88 % 0.00 in
04:20 27.7 °F 24.4 °F 29.59 in West 2.0 mph 12.0 mph 87 % 0.00 in
04:25 27.7 °F 24.4 °F 29.59 in West 2.0 mph 12.0 mph 87 % 0.00 in
04:30 27.5 °F 24.4 °F 29.58 in Calm   7.0 mph 88 % 0.00 in
04:31 27.4 °F 24.0 °F 29.60 in Calm   2.0 mph 88 % 0.00 in
04:35 27.5 °F 24.4 °F 29.58 in Calm   7.0 mph 88 % 0.00 in
04:40 27.5 °F 24.4 °F 29.58 in Calm   7.0 mph 88 % 0.00 in
04:45 27.4 °F 24.3 °F 29.57 in Calm   5.0 mph 88 % 0.00 in
04:46 27.4 °F 25.0 °F 29.59 in Calm   10.0 mph 89 % 0.00 in
04:50 27.4 °F 24.3 °F 29.57 in Calm   5.0 mph 88 % 0.00 in
04:55 27.4 °F 24.3 °F 29.57 in Calm   5.0 mph 88 % 0.00 in
05:00 27.4 °F 24.6 °F 29.57 in SSW 1.0 mph 11.0 mph 89 % 0.00 in
05:01 27.3 °F 25.0 °F 29.59 in Calm   3.0 mph 89 % 0.00 in
05:05 27.4 °F 24.6 °F 29.57 in SSW 1.0 mph 11.0 mph 89 % 0.00 in
05:10 27.4 °F 24.6 °F 29.57 in WSW 1.0 mph 7.0 mph 89 % 0.00 in
05:15 27.4 °F 24.6 °F 29.57 in WSW 1.0 mph 7.0 mph 89 % 0.00 in
05:16 27.4 °F 25.0 °F 29.59 in Calm   3.0 mph 89 % 0.00 in
05:20 27.4 °F 24.6 °F 29.57 in WSW 1.0 mph 7.0 mph 89 % 0.00 in
05:25 27.4 °F 24.6 °F 29.57 in Calm   6.0 mph 89 % 0.00 in
05:30 27.4 °F 24.6 °F 29.57 in Calm   6.0 mph 89 % 0.00 in
05:31 27.1 °F 24.0 °F 29.59 in WSW 4.0 mph 4.0 mph 89 % 0.00 in
05:35 27.4 °F 24.6 °F 29.57 in Calm   6.0 mph 89 % 0.00 in
05:40 27.0 °F 24.2 °F 29.57 in SW 1.0 mph 7.0 mph 89 % 0.00 in
05:45 27.0 °F 24.2 °F 29.57 in SW 1.0 mph 7.0 mph 89 % 0.00 in
05:46 26.9 °F 24.0 °F 29.59 in SSE 1.0 mph 6.0 mph 89 % 0.00 in
05:50 27.0 °F 24.2 °F 29.57 in SW 1.0 mph 7.0 mph 89 % 0.00 in
05:55 26.9 °F 24.1 °F 29.56 in SW 1.0 mph 8.0 mph 89 % 0.00 in
06:00 26.9 °F 24.1 °F 29.56 in SW 1.0 mph 8.0 mph 89 % 0.00 in
06:01 26.9 °F 24.0 °F 29.58 in SW 1.0 mph 6.0 mph 90 % 0.00 in
06:05 26.9 °F 24.1 °F 29.56 in SW 1.0 mph 8.0 mph 89 % 0.00 in
06:10 26.9 °F 24.1 °F 29.56 in SW 1.0 mph 8.0 mph 89 % 0.00 in
06:15 26.9 °F 24.4 °F 29.56 in SW 1.0 mph 5.0 mph 90 % 0.00 in
06:16 26.7 °F 24.0 °F 29.58 in WSW 3.0 mph 6.0 mph 90 % 0.00 in
06:20 26.9 °F 24.4 °F 29.56 in SW 1.0 mph 5.0 mph 90 % 0.00 in
06:25 26.9 °F 24.4 °F 29.56 in SW 1.0 mph 5.0 mph 90 % 0.00 in
06:30 26.7 °F 24.2 °F 29.56 in SW 1.0 mph 11.0 mph 90 % 0.00 in
06:31 26.7 °F 24.0 °F 29.58 in Calm   6.0 mph 89 % 0.00 in
06:35 26.7 °F 24.2 °F 29.56 in SW 1.0 mph 11.0 mph 90 % 0.00 in
06:40 26.7 °F 24.2 °F 29.56 in SW 1.0 mph 11.0 mph 90 % 0.00 in
06:45 26.7 °F 23.9 °F 29.55 in West 1.0 mph 8.0 mph 89 % 0.00 in
06:46 26.8 °F 24.0 °F 29.57 in WNW 2.0 mph 6.0 mph 89 % 0.00 in
06:50 26.7 °F 23.9 °F 29.55 in West 1.0 mph 8.0 mph 89 % 0.00 in
06:55 26.9 °F 23.8 °F 29.55 in West 1.0 mph 1.0 mph 88 % 0.00 in
07:00 26.9 °F 23.8 °F 29.55 in WSW 1.0 mph 1.0 mph 88 % 0.00 in
07:01 26.9 °F 24.0 °F 29.58 in South 2.0 mph 4.0 mph 88 % 0.00 in
07:13 26.9 °F 23.8 °F 29.55 in WSW 1.0 mph   88 % 0.00 in
07:18 27.1 °F 24.0 °F 29.55 in Calm   3.0 mph 88 % 0.00 in
07:23 27.2 °F 24.1 °F 29.55 in Calm   3.0 mph 88 % 0.00 in
07:25 27.2 °F 24.1 °F 29.55 in Calm     88 % 0.00 in
07:28 27.2 °F 24.1 °F 29.55 in SW 3.0 mph 4.0 mph 88 % 0.00 in
07:30 27.2 °F 24.1 °F 29.55 in SW 1.0 mph 4.0 mph 88 % 0.00 in
07:35 27.2 °F 24.1 °F 29.55 in SW 1.0 mph 4.0 mph 88 % 0.00 in
07:40 27.2 °F 24.1 °F 29.55 in SW 1.0 mph 4.0 mph 88 % 0.00 in
07:45 27.2 °F 23.9 °F 29.55 in SW 1.0 mph 4.0 mph 87 % 0.00 in
07:46 27.4 °F 24.0 °F 29.57 in Calm   5.0 mph 88 % 0.00 in
07:50 27.2 °F 23.9 °F 29.55 in SW 1.0 mph 4.0 mph 87 % 0.00 in
07:55 27.2 °F 23.9 °F 29.55 in SW 1.0 mph 4.0 mph 87 % 0.00 in
08:00 27.4 °F 24.3 °F 29.55 in Calm   7.0 mph 88 % 0.00 in
08:01 27.8 °F 25.0 °F 29.57 in Calm   4.0 mph 88 % 0.00 in
08:05 27.4 °F 24.3 °F 29.55 in Calm   7.0 mph 88 % 0.00 in
08:10 27.4 °F 24.3 °F 29.55 in Calm   7.0 mph 88 % 0.00 in
08:15 27.9 °F 24.8 °F 29.54 in Calm   5.0 mph 88 % 0.00 in
08:16 28.2 °F 25.0 °F 29.57 in ESE 1.0 mph 3.0 mph 88 % 0.00 in
08:20 27.9 °F 24.8 °F 29.54 in Calm   5.0 mph 88 % 0.00 in
08:25 27.9 °F 24.8 °F 29.54 in Calm   5.0 mph 88 % 0.00 in
08:30 28.3 °F 25.2 °F 29.55 in SSW 1.0 mph 5.0 mph 88 % 0.00 in
08:31 28.4 °F 25.0 °F 29.57 in SSE 1.0 mph 3.0 mph 87 % 0.00 in
08:35 28.3 °F 25.2 °F 29.55 in SSW 1.0 mph 5.0 mph 88 % 0.00 in
08:40 28.3 °F 25.2 °F 29.55 in SSW 1.0 mph 5.0 mph 88 % 0.00 in
08:45 28.4 °F 25.0 °F 29.54 in SSW 1.0 mph 5.0 mph 87 % 0.00 in
08:46 28.5 °F 25.0 °F 29.57 in SSE 4.0 mph 6.0 mph 86 % 0.00 in
08:50 28.4 °F 25.0 °F 29.54 in SSW 1.0 mph 5.0 mph 87 % 0.00 in
08:55 28.4 °F 25.0 °F 29.54 in SSW 1.0 mph 5.0 mph 87 % 0.00 in
09:00 28.5 °F 24.9 °F 29.55 in SSW 1.0 mph 7.0 mph 86 % 0.00 in
09:01 28.9 °F 25.0 °F 29.57 in South 2.0 mph 2.0 mph 86 % 0.00 in
09:05 28.5 °F 24.9 °F 29.55 in SSW 1.0 mph 7.0 mph 86 % 0.00 in
09:10 28.5 °F 24.9 °F 29.55 in SSW 1.0 mph 7.0 mph 86 % 0.00 in
09:15 28.9 °F 25.2 °F 29.55 in Calm   4.0 mph 86 % 0.00 in
09:16 29.4 °F 26.0 °F 29.58 in Calm     86 % 0.00 in
09:20 28.9 °F 25.2 °F 29.55 in Calm   4.0 mph 86 % 0.00 in
09:25 28.9 °F 25.2 °F 29.55 in Calm   4.0 mph 86 % 0.00 in
09:30 29.4 °F 25.7 °F 29.56 in Calm     86 % 0.00 in
09:31 29.8 °F 26.0 °F 29.59 in Calm   2.0 mph 86 % 0.00 in
09:35 29.4 °F 25.7 °F 29.56 in Calm     86 % 0.00 in
09:40 29.4 °F 25.7 °F 29.56 in Calm     86 % 0.00 in
09:45 29.8 °F 26.1 °F 29.57 in Calm   1.0 mph 86 % 0.00 in
09:46 30.1 °F 26.0 °F 29.60 in ENE 3.0 mph 3.0 mph 86 % 0.00 in
09:50 29.8 °F 26.1 °F 29.57 in Calm   1.0 mph 86 % 0.00 in
09:55 29.8 °F 26.1 °F 29.57 in Calm   1.0 mph 86 % 0.00 in
10:00 30.1 °F 26.4 °F 29.58 in Calm   3.0 mph 86 % 0.00 in
10:01 30.0 °F 26.0 °F 29.62 in NNW 1.0 mph 3.0 mph 86 % 0.00 in
10:05 30.1 °F 26.4 °F 29.58 in Calm   3.0 mph 86 % 0.00 in
10:10 30.1 °F 26.4 °F 29.58 in Calm   3.0 mph 86 % 0.00 in
10:15 30.0 °F 26.3 °F 29.60 in NNE 1.0 mph 7.0 mph 86 % 0.00 in
10:16 30.2 °F 27.0 °F 29.63 in Calm   5.0 mph 87 % 0.00 in
10:20 30.0 °F 26.3 °F 29.60 in NNE 1.0 mph 7.0 mph 86 % 0.00 in
10:25 30.0 °F 26.3 °F 29.60 in NNE 1.0 mph 7.0 mph 86 % 0.00 in
10:30 30.3 °F 26.9 °F 29.61 in North 1.0 mph 7.0 mph 87 % 0.00 in
10:31 30.1 °F 27.0 °F 29.65 in NE 2.0 mph 9.0 mph 87 % 0.00 in
10:35 30.3 °F 26.9 °F 29.61 in North 1.0 mph 7.0 mph 87 % 0.00 in
10:40 30.3 °F 26.9 °F 29.61 in North 1.0 mph 7.0 mph 87 % 0.00 in
10:45 29.9 °F 26.5 °F 29.62 in NE 3.0 mph 12.0 mph 87 % 0.00 in
10:46 29.6 °F 26.0 °F 29.66 in North 4.0 mph 11.0 mph 87 % 0.00 in
10:50 29.9 °F 26.5 °F 29.62 in NE 3.0 mph 12.0 mph 87 % 0.00 in
10:55 29.9 °F 26.5 °F 29.62 in NE 3.0 mph 12.0 mph 87 % 0.00 in
11:00 29.6 °F 26.5 °F 29.64 in NNW 4.0 mph 13.0 mph 88 % 0.00 in
11:01 29.6 °F 27.0 °F 29.68 in NNE 3.0 mph 9.0 mph 88 % 0.00 in
11:05 29.6 °F 26.5 °F 29.64 in NNW 4.0 mph 13.0 mph 88 % 0.00 in
11:10 29.6 °F 26.5 °F 29.64 in NNW 4.0 mph 13.0 mph 88 % 0.00 in
11:15 29.6 °F 26.5 °F 29.66 in NNE 4.0 mph 12.0 mph 88 % 0.00 in
11:16 29.7 °F 27.0 °F 29.70 in NNW 1.0 mph 9.0 mph 89 % 0.00 in
11:20 29.6 °F 26.5 °F 29.66 in NNE 4.0 mph 12.0 mph 88 % 0.00 in
11:25 29.6 °F 26.5 °F 29.66 in NNE 4.0 mph 12.0 mph 88 % 0.00 in
11:30 29.7 °F 26.9 °F 29.67 in North 3.0 mph 10.0 mph 89 % 0.00 in
11:31 29.8 °F 27.0 °F 29.71 in North 1.0 mph 12.0 mph 89 % 0.00 in
11:35 29.7 °F 26.9 °F 29.67 in North 3.0 mph 10.0 mph 89 % 0.00 in
11:40 29.7 °F 26.9 °F 29.67 in North 3.0 mph 10.0 mph 89 % 0.00 in
11:45 29.9 °F 27.1 °F 29.69 in North 4.0 mph 13.0 mph 89 % 0.00 in
11:46 30.4 °F 28.0 °F 29.73 in NW 2.0 mph 10.0 mph 89 % 0.00 in
11:50 29.9 °F 27.1 °F 29.69 in North 4.0 mph 13.0 mph 89 % 0.00 in
11:55 29.9 °F 27.1 °F 29.69 in North 4.0 mph 13.0 mph 89 % 0.00 in
12:00 30.4 °F 27.3 °F 29.70 in NNW 5.0 mph 15.0 mph 88 % 0.00 in
12:01 30.5 °F 27.0 °F 29.74 in NNE 10.0 mph 13.0 mph 88 % 0.01 in
12:05 30.4 °F 27.3 °F 29.70 in NNW 5.0 mph 15.0 mph 88 % 0.00 in
12:10 30.4 °F 27.3 °F 29.70 in NNW 5.0 mph 15.0 mph 88 % 0.00 in
12:15 30.4 °F 27.3 °F 29.71 in NNE 6.0 mph 17.0 mph 88 % 0.00 in
12:17 30.5 °F 27.0 °F 29.75 in North 4.0 mph 12.0 mph 88 % 0.01 in
12:20 30.4 °F 27.3 °F 29.71 in NNE 6.0 mph 17.0 mph 88 % 0.00 in
12:25 30.4 °F 27.3 °F 29.71 in NNE 6.0 mph 17.0 mph 88 % 0.00 in
12:30 30.6 °F 27.8 °F 29.73 in NNW 5.0 mph 17.0 mph 89 % 0.00 in
12:32 31.6 °F 28.0 °F 29.77 in Calm   14.0 mph 87 % 0.02 in
12:35 30.6 °F 27.8 °F 29.73 in NNW 5.0 mph 17.0 mph 89 % 0.00 in
12:40 30.6 °F 27.8 °F 29.73 in NNW 5.0 mph 17.0 mph 89 % 0.00 in
12:45 31.6 °F 28.2 °F 29.74 in NNE 5.0 mph 16.0 mph 87 % 0.00 in
12:47 31.6 °F 28.0 °F 29.77 in WNW 3.0 mph 13.0 mph 86 % 0.03 in
12:50 31.6 °F 28.2 °F 29.74 in NNE 5.0 mph 16.0 mph 87 % 0.00 in
12:55 31.6 °F 28.2 °F 29.74 in NNE 5.0 mph 16.0 mph 87 % 0.00 in
13:00 31.6 °F 27.9 °F 29.75 in NNE 6.0 mph 15.0 mph 86 % 0.00 in
13:02 32.0 °F 28.0 °F 29.78 in NW 2.0 mph 11.0 mph 86 % 0.03 in
13:05 31.6 °F 27.9 °F 29.75 in NNE 6.0 mph 15.0 mph 86 % 0.00 in
13:10 31.6 °F 27.9 °F 29.75 in NNE 6.0 mph 15.0 mph 86 % 0.00 in
13:15 32.0 °F 28.3 °F 29.75 in North 5.0 mph 12.0 mph 86 % 0.00 in
13:17 31.6 °F 28.0 °F 29.79 in WNW 5.0 mph 11.0 mph 87 % 0.03 in
13:20 32.0 °F 28.3 °F 29.75 in North 5.0 mph 12.0 mph 86 % 0.00 in
13:25 32.0 °F 28.3 °F 29.75 in North 5.0 mph 12.0 mph 86 % 0.00 in
13:30 31.6 °F 27.9 °F 29.77 in NNW 6.0 mph 14.0 mph 86 % 0.00 in
13:32 31.2 °F 28.0 °F 29.80 in NE 5.0 mph 9.0 mph 87 % 0.02 in
13:35 31.6 °F 27.9 °F 29.77 in NNW 6.0 mph 14.0 mph 86 % 0.00 in
13:40 31.6 °F 27.9 °F 29.77 in NNW 6.0 mph 14.0 mph 86 % 0.00 in
13:45 31.2 °F 27.8 °F 29.77 in NNE 5.0 mph 15.0 mph 87 % 0.00 in
13:47 31.3 °F 29.0 °F 29.81 in NW 7.0 mph 10.0 mph 89 % 0.01 in
13:50 31.2 °F 27.8 °F 29.77 in NNE 5.0 mph 15.0 mph 87 % 0.00 in
13:55 31.2 °F 27.8 °F 29.77 in NNE 5.0 mph 15.0 mph 87 % 0.00 in
14:00 31.3 °F 28.4 °F 29.78 in NNW 5.0 mph 13.0 mph 89 % 0.00 in
14:02 31.5 °F 29.0 °F 29.82 in NW 4.0 mph 10.0 mph 90 % 0.00 in
14:05 31.3 °F 28.4 °F 29.78 in NNW 5.0 mph 13.0 mph 89 % 0.00 in
14:10 31.3 °F 28.4 °F 29.78 in NNW 5.0 mph 13.0 mph 89 % 0.00 in
14:15 31.5 °F 28.9 °F 29.79 in NW 5.0 mph 11.0 mph 90 % 0.00 in
14:17 31.9 °F 29.0 °F 29.83 in NNW 4.0 mph 18.0 mph 90 % 0.01 in
14:20 31.5 °F 28.9 °F 29.79 in NW 5.0 mph 11.0 mph 90 % 0.00 in
14:25 31.5 °F 28.9 °F 29.79 in NW 5.0 mph 11.0 mph 90 % 0.00 in
14:30 32.0 °F 29.7 °F 29.80 in NNW 7.0 mph 20.0 mph 91 % 0.00 in
14:35 32.0 °F 29.7 °F 29.80 in NNW 7.0 mph 20.0 mph 91 % 0.00 in
14:36 32.2 °F 30.0 °F 29.84 in West 6.0 mph 13.0 mph 91 % 0.02 in
14:40 32.0 °F 29.7 °F 29.80 in NNW 7.0 mph 20.0 mph 91 % 0.00 in
14:45 32.3 °F 30.0 °F 29.81 in NNW 8.0 mph 17.0 mph 91 % 0.00 in
14:47 32.3 °F 30.0 °F 29.85 in WNW 9.0 mph 18.0 mph 90 % 0.02 in
14:50 32.3 °F 30.0 °F 29.81 in NNW 8.0 mph 17.0 mph 91 % 0.00 in
14:55 32.3 °F 30.0 °F 29.81 in NNW 8.0 mph 17.0 mph 91 % 0.00 in
15:00 32.3 °F 29.7 °F 29.82 in North 8.0 mph 21.0 mph 90 % 0.00 in
15:02 32.8 °F 30.0 °F 29.86 in NNW 15.0 mph 17.0 mph 89 % 0.02 in
15:04 32.8 °F 30.0 °F 29.83 in North 10.0 mph 19.0 mph 89 % 0.01 in
15:05 32.3 °F 29.7 °F 29.82 in North 8.0 mph 21.0 mph 90 % 0.00 in
15:10 32.3 °F 29.7 °F 29.82 in North 8.0 mph 21.0 mph 90 % 0.00 in
15:15 32.8 °F 29.9 °F 29.83 in NNW 8.0 mph 19.0 mph 89 % 0.00 in
15:18 32.9 °F 30.0 °F 29.87 in WNW 4.0 mph 18.0 mph 88 % 0.01 in
15:20 32.8 °F 29.9 °F 29.83 in NNW 8.0 mph 19.0 mph 89 % 0.00 in
15:25 32.8 °F 29.9 °F 29.83 in NNW 8.0 mph 19.0 mph 89 % 0.00 in
15:30 32.9 °F 29.8 °F 29.84 in NNW 9.0 mph 23.0 mph 88 % 0.00 in
15:32 32.9 °F 30.0 °F 29.89 in West 3.0 mph 15.0 mph 88 % 0.00 in
15:35 32.9 °F 29.8 °F 29.84 in NNW 9.0 mph 23.0 mph 88 % 0.00 in
15:40 32.9 °F 29.8 °F 29.84 in NNW 9.0 mph 23.0 mph 88 % 0.00 in
15:45 32.9 °F 29.8 °F 29.86 in NNW 7.0 mph 23.0 mph 88 % 0.00 in
15:48 33.0 °F 30.0 °F 29.90 in North 3.0 mph 17.0 mph 88 % 0.01 in
15:50 32.9 °F 29.8 °F 29.86 in NNW 7.0 mph 23.0 mph 88 % 0.00 in
15:55 32.9 °F 29.8 °F 29.86 in NNW 7.0 mph 23.0 mph 88 % 0.00 in
16:00 33.0 °F 29.8 °F 29.87 in NNW 8.0 mph 19.0 mph 88 % 0.00 in
16:02 33.2 °F 30.0 °F 29.91 in NNW 5.0 mph 14.0 mph 87 % 0.01 in
16:05 33.0 °F 29.8 °F 29.87 in NNW 8.0 mph 19.0 mph 88 % 0.00 in
16:10 33.0 °F 29.8 °F 29.87 in NNW 8.0 mph 19.0 mph 88 % 0.00 in
16:15 33.2 °F 29.8 °F 29.88 in NNW 7.0 mph 21.0 mph 87 % 0.00 in
16:17 33.2 °F 30.0 °F 29.92 in NNE 1.0 mph 14.0 mph 87 % 0.01 in
16:20 33.2 °F 29.8 °F 29.88 in NNW 7.0 mph 21.0 mph 87 % 0.00 in
16:25 33.2 °F 29.8 °F 29.88 in NNW 7.0 mph 21.0 mph 87 % 0.00 in
16:30 33.3 °F 29.9 °F 29.89 in NNW 7.0 mph 19.0 mph 87 % 0.00 in
16:32 33.4 °F 30.0 °F 29.94 in NE 16.0 mph 16.0 mph 86 % 0.01 in
16:35 33.3 °F 29.9 °F 29.89 in NNW 7.0 mph 19.0 mph 87 % 0.00 in
16:40 33.3 °F 29.9 °F 29.89 in NNW 7.0 mph 19.0 mph 87 % 0.00 in
16:45 33.4 °F 29.7 °F 29.90 in NNW 8.0 mph 20.0 mph 86 % 0.00 in
16:47 33.3 °F 30.0 °F 29.95 in NNW 10.0 mph 18.0 mph 86 % 0.00 in
16:50 33.4 °F 29.7 °F 29.90 in NNW 8.0 mph 20.0 mph 86 % 0.00 in
16:55 33.4 °F 29.7 °F 29.90 in NNW 8.0 mph 20.0 mph 86 % 0.00 in
17:00 33.3 °F 29.6 °F 29.92 in NNW 8.0 mph 20.0 mph 86 % 0.00 in
17:02 33.1 °F 29.0 °F 29.96 in NNW 3.0 mph 15.0 mph 86 % 0.00 in
17:05 33.3 °F 29.6 °F 29.92 in NNW 8.0 mph 20.0 mph 86 % 0.00 in
17:10 33.3 °F 29.6 °F 29.92 in NNW 8.0 mph 20.0 mph 86 % 0.00 in
17:15 33.1 °F 29.4 °F 29.93 in NNW 7.0 mph 18.0 mph 86 % 0.00 in
17:17 32.9 °F 29.0 °F 29.97 in NNW 5.0 mph 17.0 mph 86 % 0.00 in
17:20 33.1 °F 29.4 °F 29.93 in NNW 7.0 mph 18.0 mph 86 % 0.00 in
17:25 33.1 °F 29.4 °F 29.93 in NNW 7.0 mph 18.0 mph 86 % 0.00 in
17:30 32.8 °F 28.8 °F 29.94 in NNW 8.0 mph 21.0 mph 85 % 0.00 in
17:32 32.6 °F 29.0 °F 29.99 in NW 7.0 mph 13.0 mph 85 % 0.00 in
17:35 32.8 °F 28.8 °F 29.94 in NNW 8.0 mph 21.0 mph 85 % 0.00 in
17:40 32.8 °F 28.8 °F 29.94 in NNW 8.0 mph 21.0 mph 85 % 0.00 in
17:45 32.6 °F 28.6 °F 29.96 in NNW 8.0 mph 19.0 mph 85 % 0.00 in
17:47 32.4 °F 28.0 °F 30.00 in WSW 4.0 mph 19.0 mph 84 % 0.00 in
17:50 32.6 °F 28.6 °F 29.96 in NNW 8.0 mph 19.0 mph 85 % 0.00 in
17:55 32.6 °F 28.6 °F 29.96 in NNW 8.0 mph 19.0 mph 85 % 0.00 in
18:00 32.4 °F 28.1 °F 29.97 in NW 9.0 mph 21.0 mph 84 % 0.00 in
18:02 32.2 °F 28.0 °F 30.01 in WNW 10.0 mph 16.0 mph 83 % 0.00 in
18:05 32.4 °F 28.1 °F 29.97 in NW 9.0 mph 21.0 mph 84 % 0.00 in
18:10 32.4 °F 28.1 °F 29.97 in NW 9.0 mph 21.0 mph 84 % 0.00 in
18:15 32.2 °F 27.6 °F 29.98 in NNW 8.0 mph 22.0 mph 83 % 0.00 in
18:17 32.1 °F 28.0 °F 30.02 in NE 8.0 mph 15.0 mph 83 % 0.00 in
18:20 32.2 °F 27.6 °F 29.98 in NNW 8.0 mph 22.0 mph 83 % 0.00 in
18:25 32.2 °F 27.6 °F 29.98 in NNW 8.0 mph 22.0 mph 83 % 0.00 in
18:30 32.1 °F 27.8 °F 29.99 in NW 7.0 mph 17.0 mph 84 % 0.00 in
18:32 31.6 °F 27.0 °F 30.03 in North 6.0 mph 17.0 mph 84 % 0.00 in
18:35 32.1 °F 27.8 °F 29.99 in NW 7.0 mph 17.0 mph 84 % 0.00 in
18:40 32.1 °F 27.8 °F 29.99 in NW 7.0 mph 17.0 mph 84 % 0.00 in
18:45 31.6 °F 27.3 °F 30.00 in NNW 9.0 mph 20.0 mph 84 % 0.00 in
18:48 31.4 °F 27.0 °F 30.04 in WNW 7.0 mph 15.0 mph 85 % 0.00 in
18:50 31.6 °F 27.3 °F 30.00 in NNW 9.0 mph 20.0 mph 84 % 0.00 in
18:55 31.6 °F 27.3 °F 30.00 in NNW 9.0 mph 20.0 mph 84 % 0.00 in
19:00 31.4 °F 27.4 °F 30.01 in NNW 7.0 mph 17.0 mph 85 % 0.00 in
19:03 31.3 °F 27.0 °F 30.05 in NW 8.0 mph 16.0 mph 85 % 0.00 in
19:05 31.4 °F 27.4 °F 30.01 in NNW 7.0 mph 17.0 mph 85 % 0.00 in
19:10 31.4 °F 27.4 °F 30.01 in NNW 7.0 mph 17.0 mph 85 % 0.00 in
19:15 31.3 °F 27.3 °F 30.02 in NNW 7.0 mph 17.0 mph 85 % 0.00 in
19:18 31.2 °F 27.0 °F 30.04 in WNW 3.0 mph 14.0 mph 85 % 0.00 in
19:20 31.3 °F 27.3 °F 30.02 in NNW 7.0 mph 17.0 mph 85 % 0.00 in
19:25 31.3 °F 27.3 °F 30.02 in NNW 7.0 mph 17.0 mph 85 % 0.00 in
19:30 31.2 °F 27.2 °F 30.02 in NNW 7.0 mph 19.0 mph 85 % 0.00 in
19:33 31.2 °F 27.0 °F 30.05 in NW 2.0 mph 12.0 mph 85 % 0.00 in
19:35 31.2 °F 27.2 °F 30.02 in NNW 7.0 mph 19.0 mph 85 % 0.00 in
19:40 31.2 °F 27.2 °F 30.02 in NNW 7.0 mph 19.0 mph 85 % 0.00 in
19:45 31.2 °F 27.2 °F 30.03 in NNW 6.0 mph 17.0 mph 85 % 0.00 in
19:48 31.3 °F 27.0 °F 30.07 in NW 4.0 mph 15.0 mph 84 % 0.00 in
19:50 31.2 °F 27.2 °F 30.03 in NNW 6.0 mph 17.0 mph 85 % 0.00 in
19:55 31.2 °F 27.2 °F 30.03 in NNW 6.0 mph 17.0 mph 85 % 0.00 in
20:00 31.3 °F 27.0 °F 30.03 in NNW 7.0 mph 17.0 mph 84 % 0.00 in
20:03 31.4 °F 27.0 °F 30.08 in NW 5.0 mph 15.0 mph 84 % 0.00 in
20:05 31.3 °F 27.0 °F 30.03 in NNW 7.0 mph 17.0 mph 84 % 0.00 in
20:10 31.3 °F 27.0 °F 30.03 in NNW 7.0 mph 17.0 mph 84 % 0.00 in
20:15 31.4 °F 27.1 °F 30.05 in NNW 7.0 mph 18.0 mph 84 % 0.00 in
20:18 31.4 °F 27.0 °F 30.08 in NW 5.0 mph 11.0 mph 84 % 0.00 in
20:25 31.4 °F 27.1 °F 30.05 in NNW 7.0 mph 18.0 mph 84 % 0.00 in
20:30 31.4 °F 27.1 °F 30.05 in NW 5.0 mph 15.0 mph 84 % 0.00 in
20:33 31.3 °F 27.0 °F 30.09 in WSW 4.0 mph 11.0 mph 85 % 0.00 in
20:35 31.4 °F 27.1 °F 30.05 in NW 5.0 mph 15.0 mph 84 % 0.00 in
20:40 31.4 °F 27.1 °F 30.05 in NW 5.0 mph 15.0 mph 84 % 0.00 in
20:45 31.4 °F 27.4 °F 30.06 in NW 5.0 mph 17.0 mph 85 % 0.00 in
20:48 31.3 °F 28.0 °F 30.09 in NW 3.0 mph 11.0 mph 86 % 0.00 in
20:50 31.4 °F 27.4 °F 30.06 in NW 5.0 mph 17.0 mph 85 % 0.00 in
20:55 31.4 °F 27.4 °F 30.06 in NW 5.0 mph 17.0 mph 85 % 0.00 in
21:00 31.3 °F 27.6 °F 30.06 in NNW 6.0 mph 13.0 mph 86 % 0.00 in
21:03 31.3 °F 28.0 °F 30.09 in WNW 7.0 mph 10.0 mph 86 % 0.00 in
21:05 31.3 °F 27.6 °F 30.06 in NNW 6.0 mph 13.0 mph 86 % 0.00 in
21:10 31.3 °F 27.6 °F 30.06 in NNW 6.0 mph 13.0 mph 86 % 0.00 in
21:15 31.3 °F 27.6 °F 30.07 in NNW 4.0 mph 12.0 mph 86 % 0.00 in
21:18 31.3 °F 28.0 °F 30.10 in NW 3.0 mph 10.0 mph 86 % 0.00 in
21:20 31.3 °F 27.6 °F 30.07 in NNW 4.0 mph 12.0 mph 86 % 0.00 in
21:25 31.3 °F 27.6 °F 30.07 in NNW 4.0 mph 12.0 mph 86 % 0.00 in
21:30 31.3 °F 27.6 °F 30.07 in NNW 3.0 mph 12.0 mph 86 % 0.00 in
21:33 31.3 °F 28.0 °F 30.10 in West 6.0 mph 17.0 mph 86 % 0.00 in
21:35 31.3 °F 27.6 °F 30.07 in NNW 3.0 mph 12.0 mph 86 % 0.00 in
21:40 31.3 °F 27.6 °F 30.07 in NNW 3.0 mph 12.0 mph 86 % 0.00 in
21:45 31.3 °F 27.6 °F 30.08 in NNW 4.0 mph 18.0 mph 86 % 0.00 in
21:48 31.0 °F 27.0 °F 30.11 in NNW 9.0 mph 15.0 mph 86 % 0.00 in
21:50 31.3 °F 27.6 °F 30.08 in NNW 4.0 mph 18.0 mph 86 % 0.00 in
21:55 31.3 °F 27.6 °F 30.08 in NNW 4.0 mph 18.0 mph 86 % 0.00 in
22:00 31.0 °F 27.3 °F 30.08 in NNW 7.0 mph 17.0 mph 86 % 0.00 in
22:03 30.8 °F 27.0 °F 30.12 in NW 4.0 mph 15.0 mph 86 % 0.00 in
22:05 31.0 °F 27.3 °F 30.08 in NNW 7.0 mph 17.0 mph 86 % 0.00 in
22:10 31.0 °F 27.3 °F 30.08 in NNW 7.0 mph 17.0 mph 86 % 0.00 in
22:15 30.8 °F 27.1 °F 30.09 in NNW 6.0 mph 18.0 mph 86 % 0.00 in
22:18 30.6 °F 27.0 °F 30.13 in NW 6.0 mph 13.0 mph 86 % 0.00 in
22:20 30.8 °F 27.1 °F 30.09 in NNW 6.0 mph 18.0 mph 86 % 0.00 in
22:25 30.8 °F 27.1 °F 30.09 in NNW 6.0 mph 18.0 mph 86 % 0.00 in
22:30 30.6 °F 26.9 °F 30.09 in NNW 5.0 mph 15.0 mph 86 % 0.00 in
22:33 30.5 °F 27.0 °F 30.14 in NW 9.0 mph 15.0 mph 85 % 0.00 in
22:35 30.6 °F 26.9 °F 30.09 in NNW 5.0 mph 15.0 mph 86 % 0.00 in
22:40 30.6 °F 26.9 °F 30.09 in NNW 5.0 mph 15.0 mph 86 % 0.00 in
22:45 30.5 °F 26.5 °F 30.10 in NNW 6.0 mph 16.0 mph 85 % 0.00 in
22:48 30.3 °F 26.0 °F 30.13 in NW 5.0 mph 12.0 mph 85 % 0.00 in
22:50 30.5 °F 26.5 °F 30.10 in NNW 6.0 mph 16.0 mph 85 % 0.00 in
22:55 30.5 °F 26.5 °F 30.10 in NNW 6.0 mph 16.0 mph 85 % 0.00 in
23:00 30.3 °F 26.4 °F 30.10 in NW 7.0 mph 18.0 mph 85 % 0.00 in
23:03 30.3 °F 26.0 °F 30.14 in NW 2.0 mph 12.0 mph 85 % 0.00 in
23:05 30.3 °F 26.4 °F 30.10 in NW 7.0 mph 18.0 mph 85 % 0.00 in
23:10 30.3 °F 26.4 °F 30.10 in NW 7.0 mph 18.0 mph 85 % 0.00 in
23:15 30.2 °F 26.2 °F 30.11 in NNW 6.0 mph 14.0 mph 85 % 0.00 in
23:18 30.2 °F 26.0 °F 30.14 in NW 2.0 mph 12.0 mph 85 % 0.00 in
23:20 30.2 °F 26.2 °F 30.11 in NNW 6.0 mph 14.0 mph 85 % 0.00 in
23:25 30.2 °F 26.2 °F 30.11 in NNW 6.0 mph 14.0 mph 85 % 0.00 in
23:30 30.2 °F 26.2 °F 30.11 in NW 5.0 mph 15.0 mph 85 % 0.00 in
23:33 30.0 °F 26.0 °F 30.14 in NW 10.0 mph 15.0 mph 85 % 0.00 in
23:35 30.2 °F 26.2 °F 30.11 in NW 5.0 mph 15.0 mph 85 % 0.00 in
23:40 30.2 °F 26.2 °F 30.11 in NW 5.0 mph 15.0 mph 85 % 0.00 in
23:45 30.0 °F 26.0 °F 30.11 in NW 6.0 mph 15.0 mph 85 % 0.00 in
23:48 29.7 °F 26.0 °F 30.15 in NW 5.0 mph 13.0 mph 85 % 0.00 in
23:50 30.0 °F 26.0 °F 30.11 in NW 6.0 mph 15.0 mph 85 % 0.00 in
23:55 30.0 °F 26.0 °F 30.11 in NW 6.0 mph 15.0 mph 85 % 0.00 in
Des Moines Weather and Climate
Compliments of Weather Underground - 4.5 mb

Script developed by  Jim McMurry - jmcmurry@mwt.net Adapted for the template by  Wim van der Kuil - Leuven-Template.eu

You find our weather info also at:

Weather Underground

Equipment we use:

Weather-station
Davis VP2 Plus

Weather-program
Davis Weatherlink.Com

Weather-server
iMac (Retina 4K, 21.5-inch, Late 2015)

Provider
Hostmonster.com

Davis VP2 Plus

Davis Weatherlink.Com

iMac (Retina 4K, 21.5-inch, Late 2015)

Hostmonster.com